Time;durP1;ratioP1;P1;durP2;ratioP2;P2;SDS_P1;SDS_P2;PMS_P1;PMS_P2;Temp;Humidity;BMP_temperature;BMP_pressure;BME280_temperature;BME280_humidity;BME280_pressure;Samples;Min_cycle;Max_cycle;Signal;HPM_P1;HPM_P2
2023/12/07 00:00:43;;;;;;;30.25;27.25;;;;;;;2.92;100.00;101012.72;7397920;19;20356;-61
2023/12/07 00:03:10;;;;;;;30.13;27.23;;;;;;;2.96;100.00;101011.53;7393884;19;20364;-61
2023/12/07 00:05:37;;;;;;;29.33;26.40;;;;;;;2.92;100.00;101008.31;7397197;19;20360;-60
2023/12/07 00:08:04;;;;;;;28.95;26.05;;;;;;;2.93;100.00;101009.97;7396664;19;20876;-61
2023/12/07 00:10:30;;;;;;;28.27;25.57;;;;;;;2.96;100.00;101014.16;7399529;19;20741;-60
2023/12/07 00:12:57;;;;;;;27.58;24.95;;;;;;;2.99;100.00;101019.16;7395681;19;20401;-60
2023/12/07 00:15:24;;;;;;;27.90;25.17;;;;;;;2.99;100.00;101019.16;7396124;19;20870;-62
2023/12/07 00:17:51;;;;;;;27.27;24.58;;;;;;;2.99;100.00;101016.53;7397022;19;20436;-61
2023/12/07 00:20:18;;;;;;;27.07;24.47;;;;;;;3.01;100.00;101017.25;7396648;19;20385;-60
2023/12/07 00:22:45;;;;;;;27.63;24.92;;;;;;;3.03;100.00;101025.84;7396183;19;20373;-60
2023/12/07 00:25:12;;;;;;;26.90;24.40;;;;;;;3.03;100.00;101025.84;7397692;19;20414;-61
2023/12/07 00:27:39;;;;;;;27.55;24.88;;;;;;;3.04;100.00;101024.91;7394962;19;20368;-61
2023/12/07 00:30:07;;;;;;;26.83;24.20;;;;;;;3.05;100.00;101042.28;7395796;19;20448;-61
2023/12/07 00:32:33;;;;;;;26.85;24.25;;;;;;;3.05;100.00;101034.41;7396799;19;20679;-61
2023/12/07 00:35:00;;;;;;;26.43;23.83;;;;;;;3.04;100.00;101040.63;7395958;19;20360;-60
2023/12/07 00:37:27;;;;;;;26.00;23.50;;;;;;;3.00;100.00;101037.41;7394737;19;20868;-59
2023/12/07 00:39:54;;;;;;;27.23;24.52;;;;;;;3.06;100.00;101036.94;7392640;19;20416;-59
2023/12/07 00:42:20;;;;;;;26.08;23.58;;;;;;;3.03;100.00;101031.06;7395657;19;20373;-61
2023/12/07 00:44:48;;;;;;;26.30;23.63;;;;;;;3.07;100.00;101032.50;7395931;19;20690;-61
2023/12/07 00:47:15;;;;;;;26.02;23.58;;;;;;;3.08;100.00;101039.41;7396456;19;20433;-59
2023/12/07 00:49:42;;;;;;;25.92;23.40;;;;;;;3.06;100.00;101042.16;7393616;19;20562;-59
2023/12/07 00:52:09;;;;;;;25.25;22.80;;;;;;;3.06;100.00;101046.59;7395559;19;20722;-60
2023/12/07 00:54:36;;;;;;;26.05;23.55;;;;;;;3.10;100.00;101048.00;7394953;19;20340;-61
2023/12/07 00:57:03;;;;;;;25.88;23.50;;;;;;;3.11;100.00;101049.69;7395023;19;20356;-59
2023/12/07 00:59:33;;;;;;;25.63;23.13;;;;;;;3.10;100.00;101053.22;7393049;19;20360;-61
2023/12/07 01:02:01;;;;;;;26.30;23.80;;;;;;;3.15;100.00;101047.66;7395147;19;20348;-61
2023/12/07 01:04:29;;;;;;;26.25;23.65;;;;;;;3.15;100.00;101051.09;7394292;19;20414;-59
2023/12/07 01:06:56;;;;;;;26.95;24.45;;;;;;;3.15;100.00;101055.53;7395560;19;20939;-61
2023/12/07 01:09:23;;;;;;;26.98;24.33;;;;;;;3.17;100.00;101048.38;7392356;19;20385;-60
2023/12/07 01:11:50;;;;;;;26.70;24.10;;;;;;;3.17;100.00;101054.44;7393024;19;20428;-61
2023/12/07 01:14:18;;;;;;;26.95;24.35;;;;;;;3.17;100.00;101059.69;7395039;19;20828;-60
2023/12/07 01:16:45;;;;;;;27.95;25.25;;;;;;;3.20;100.00;101069.09;7394965;19;20367;-59
2023/12/07 01:19:14;;;;;;;25.92;23.35;;;;;;;3.18;100.00;101071.00;7393139;19;20367;-60
2023/12/07 01:21:41;;;;;;;26.87;24.17;;;;;;;3.20;100.00;101074.34;7394558;19;20879;-61
2023/12/07 01:24:09;;;;;;;26.17;23.67;;;;;;;3.19;100.00;101068.28;7393316;19;20369;-60
2023/12/07 01:26:42;;;;;;;26.02;23.42;;;;;;;3.21;100.00;101069.00;7388600;19;20559;-60
2023/12/07 01:29:09;;;;;;;26.55;23.90;;;;;;;3.21;100.00;101076.00;7390825;19;20373;-59
2023/12/07 01:31:35;;;;;;;26.10;23.60;;;;;;;3.26;100.00;101081.75;7391835;19;20357;-59
2023/12/07 01:34:02;;;;;;;26.63;23.98;;;;;;;3.24;100.00;101084.47;7391376;19;20344;-61
2023/12/07 01:36:29;;;;;;;26.52;23.92;;;;;;;3.25;100.00;101088.78;7390373;19;20432;-61
2023/12/07 01:38:57;;;;;;;27.55;24.80;;;;;;;3.28;100.00;101097.38;7394162;19;20375;-61
2023/12/07 01:41:23;;;;;;;27.05;24.40;;;;;;;3.27;100.00;101096.50;7393179;19;20365;-61
2023/12/07 01:43:50;;;;;;;28.08;25.38;;;;;;;3.28;100.00;101100.00;7391642;19;20368;-61
2023/12/07 01:46:18;;;;;;;26.17;23.77;;;;;;;3.29;100.00;101093.78;7393236;19;20406;-61
2023/12/07 01:48:48;;;;;;;26.65;23.95;;;;;;;3.28;100.00;101097.38;7392830;19;20372;-60
2023/12/07 01:51:18;;;;;;;27.10;24.40;;;;;;;3.31;100.00;101097.94;7393391;19;20871;-60
2023/12/07 01:53:45;;;;;;;26.00;23.52;;;;;;;3.30;100.00;101101.53;7392424;19;20444;-60
2023/12/07 01:56:12;;;;;;;27.02;24.40;;;;;;;3.31;100.00;101104.97;7392331;19;20380;-62
2023/12/07 01:58:39;;;;;;;26.93;24.30;;;;;;;3.32;100.00;101104.03;7393871;19;20348;-60
2023/12/07 02:01:07;;;;;;;26.60;23.95;;;;;;;3.33;100.00;101100.47;7393457;19;20695;-61
2023/12/07 02:03:34;;;;;;;27.07;24.43;;;;;;;3.36;100.00;101105.44;7391248;19;20372;-61
2023/12/07 02:06:01;;;;;;;26.20;23.70;;;;;;;3.38;100.00;101098.31;7392299;19;20361;-61
2023/12/07 02:08:28;;;;;;;26.25;23.75;;;;;;;3.38;99.81;101104.41;7392484;19;20746;-60
2023/12/07 02:10:54;;;;;;;25.67;23.17;;;;;;;3.36;99.97;101115.94;7391724;19;20360;-61
2023/12/07 02:13:22;;;;;;;26.75;24.17;;;;;;;3.36;99.93;101115.94;7392927;19;20674;-62
2023/12/07 02:15:50;;;;;;;26.30;23.70;;;;;;;3.36;99.88;101113.31;7391423;19;21491;-62
2023/12/07 02:18:48;;;;;;;27.15;24.45;;;;;;;3.39;99.75;101113.09;7393143;19;20373;-60
2023/12/07 02:21:24;;;;;;;27.02;24.30;;;;;;;3.41;99.73;101116.44;7391966;19;20369;-60
2023/12/07 02:23:54;;;;;;;26.55;23.90;;;;;;;3.41;99.44;101119.88;7390604;19;20377;-62
2023/12/07 02:26:24;;;;;;;26.05;23.40;;;;;;;3.41;99.22;101119.88;7393197;19;20880;-62
2023/12/07 02:28:52;;;;;;;25.27;22.90;;;;;;;3.43;99.45;101122.41;7393142;19;20674;-63
2023/12/07 02:31:18;;;;;;;25.48;22.98;;;;;;;3.44;99.32;101121.44;7392714;19;20452;-62
2023/12/07 02:33:46;;;;;;;25.60;23.10;;;;;;;3.44;99.23;101129.31;7392028;19;20368;-62
2023/12/07 02:36:16;;;;;;;25.80;23.40;;;;;;;3.44;98.99;101119.66;7393509;19;20348;-61
2023/12/07 02:38:44;;;;;;;25.27;22.67;;;;;;;3.45;99.04;101133.63;7392320;19;20472;-62
2023/12/07 02:41:11;;;;;;;24.95;22.45;;;;;;;3.42;98.85;101118.09;7390402;19;20340;-62
2023/12/07 02:43:39;;;;;;;24.10;21.80;;;;;;;3.46;98.60;101130.03;7391968;19;20678;-62
2023/12/07 02:46:06;;;;;;;25.17;22.77;;;;;;;3.43;98.47;101132.91;7389275;19;20383;-62
2023/12/07 02:48:33;;;;;;;24.65;22.33;;;;;;;3.44;98.61;101129.31;7392330;19;20352;-62
2023/12/07 02:50:59;;;;;;;25.05;22.55;;;;;;;3.46;98.42;101128.25;7390136;19;20373;-61
2023/12/07 02:53:26;;;;;;;24.70;22.40;;;;;;;3.46;98.29;101128.25;7391067;19;20336;-61
2023/12/07 02:55:53;;;;;;;24.33;21.95;;;;;;;3.47;98.23;101124.66;7393759;19;20356;-62
2023/12/07 02:58:20;;;;;;;24.90;22.60;;;;;;;3.48;98.38;101128.13;7398814;19;20372;-62
2023/12/07 03:00:46;;;;;;;23.40;21.20;;;;;;;3.47;97.92;101126.47;7398317;19;20691;-60
2023/12/07 03:03:13;;;;;;;23.08;20.88;;;;;;;3.50;97.92;101128.00;7396993;19;20361;-62
2023/12/07 03:05:40;;;;;;;23.73;21.42;;;;;;;3.50;97.77;101128.84;7397508;19;20352;-62
2023/12/07 03:08:07;;;;;;;24.33;21.75;;;;;;;3.51;97.79;101132.28;7398521;19;20690;-61
2023/12/07 03:10:34;;;;;;;24.08;21.58;;;;;;;3.45;97.56;101129.19;7396453;19;20357;-60
2023/12/07 03:13:00;;;;;;;23.52;21.23;;;;;;;3.49;97.47;101137.66;7397936;19;20372;-62
2023/12/07 03:15:27;;;;;;;24.35;22.05;;;;;;;3.49;97.37;101135.06;7399493;19;20860;-62
2023/12/07 03:17:54;;;;;;;23.20;21.00;;;;;;;3.50;97.36;101139.31;7398007;19;20406;-61
2023/12/07 03:20:21;;;;;;;24.38;22.00;;;;;;;3.51;97.56;101133.16;7398160;19;20407;-62
2023/12/07 03:22:47;;;;;;;23.33;21.08;;;;;;;3.52;97.44;101134.81;7396609;19;20333;-62
2023/12/07 03:25:15;;;;;;;24.17;21.88;;;;;;;3.51;97.38;101138.38;7397120;19;20348;-62
2023/12/07 03:27:42;;;;;;;23.63;21.35;;;;;;;3.52;97.48;101132.19;7398090;19;20377;-61
2023/12/07 03:30:09;;;;;;;24.65;22.25;;;;;;;3.56;97.27;101132.78;7396862;19;20360;-62
2023/12/07 03:32:36;;;;;;;23.35;21.00;;;;;;;3.60;97.53;101139.47;7397829;19;20743;-61
2023/12/07 03:35:03;;;;;;;23.70;21.43;;;;;;;3.66;97.65;101144.25;7398299;19;20344;-62
2023/12/07 03:37:30;;;;;;;23.88;21.55;;;;;;;3.68;97.43;101143.16;7397635;19;20760;-62
2023/12/07 03:39:56;;;;;;;23.30;21.00;;;;;;;3.72;97.14;101153.41;7396364;19;20396;-62
2023/12/07 03:42:23;;;;;;;22.30;20.10;;;;;;;3.72;96.85;101156.03;7397149;19;20404;-62
2023/12/07 03:45:10;;;;;;;22.98;20.58;;;;;;;3.72;96.97;101150.78;7396456;19;20368;-60
2023/12/07 03:47:37;;;;;;;22.67;20.50;;;;;;;3.73;96.95;101144.59;7395454;19;20693;-63
2023/12/07 03:50:04;;;;;;;22.65;20.55;;;;;;;3.73;96.60;101149.84;7396581;19;20772;-62
2023/12/07 03:52:31;;;;;;;22.63;20.35;;;;;;;3.71;96.68;101149.13;7397140;19;20365;-62
2023/12/07 03:54:58;;;;;;;22.73;20.33;;;;;;;3.70;96.48;101157.94;7396589;19;20368;-62
2023/12/07 03:57:25;;;;;;;22.45;20.27;;;;;;;3.66;96.31;101160.81;7397310;19;20354;-61
2023/12/07 03:59:53;;;;;;;22.00;19.90;;;;;;;3.62;95.98;101153.31;7396092;19;20439;-61
2023/12/07 04:02:20;;;;;;;22.10;19.90;;;;;;;3.60;95.92;101163.91;7394289;19;20854;-62
2023/12/07 04:04:48;;;;;;;21.52;19.52;;;;;;;3.55;96.10;101171.31;7396798;19;20372;-62
2023/12/07 04:07:14;;;;;;;22.20;19.98;;;;;;;3.55;96.42;101171.31;7394833;19;20908;-61
2023/12/07 04:09:41;;;;;;;21.23;19.23;;;;;;;3.53;96.47;101165.34;7392326;19;22403;-63
2023/12/07 04:12:08;;;;;;;21.33;19.33;;;;;;;3.49;96.55;101169.16;7396063;19;20376;-61
2023/12/07 04:14:35;;;;;;;21.97;19.77;;;;;;;3.47;96.41;101171.06;7395862;19;20356;-61
2023/12/07 04:17:01;;;;;;;21.88;19.77;;;;;;;3.47;96.67;101171.06;7391560;19;20384;-62
2023/12/07 04:19:28;;;;;;;22.58;20.48;;;;;;;3.47;96.54;101168.44;7394763;19;20420;-61
2023/12/07 04:21:55;;;;;;;21.83;19.73;;;;;;;3.46;96.86;101175.47;7395526;19;20345;-61
2023/12/07 04:24:22;;;;;;;21.77;19.63;;;;;;;3.47;96.86;101171.06;7396304;19;20368;-61
2023/12/07 04:26:49;;;;;;;21.40;19.37;;;;;;;3.48;96.51;101177.94;7393394;19;20536;-62
2023/12/07 04:29:15;;;;;;;21.63;19.63;;;;;;;3.47;96.59;101171.06;7392517;19;20353;-62
2023/12/07 04:31:43;;;;;;;21.63;19.58;;;;;;;3.47;96.79;101174.50;7392666;19;20360;-61
2023/12/07 04:34:10;;;;;;;22.25;20.05;;;;;;;3.47;96.63;101176.28;7393956;19;20360;-62
2023/12/07 04:36:36;;;;;;;21.35;19.17;;;;;;;3.49;96.76;101171.78;7397056;19;20704;-62
2023/12/07 04:39:03;;;;;;;21.42;19.17;;;;;;;3.50;96.64;101178.66;7393714;19;20871;-63
2023/12/07 04:41:30;;;;;;;21.47;19.43;;;;;;;3.47;96.46;101177.13;7396470;19;20730;-62
2023/12/07 04:43:57;;;;;;;21.38;19.23;;;;;;;3.50;96.44;101176.03;7395733;19;20362;-62
2023/12/07 04:46:23;;;;;;;21.10;19.20;;;;;;;3.50;96.48;101170.81;7394543;19;20384;-62
2023/12/07 04:48:50;;;;;;;20.75;18.65;;;;;;;3.51;96.37;101185.59;7395391;19;20345;-61
2023/12/07 04:51:17;;;;;;;20.73;18.83;;;;;;;3.52;96.53;101178.56;7392837;19;20723;-62
2023/12/07 04:53:44;;;;;;;21.60;19.50;;;;;;;3.53;96.46;101181.06;7392394;19;20364;-61
2023/12/07 04:56:10;;;;;;;21.02;18.92;;;;;;;3.56;96.22;101180.81;7395645;19;20369;-61
2023/12/07 04:58:37;;;;;;;20.92;18.92;;;;;;;3.60;96.39;101181.44;7390831;19;20368;-62
2023/12/07 05:01:04;;;;;;;21.65;19.65;;;;;;;3.62;96.09;101188.22;7394998;19;20435;-62
2023/12/07 05:03:31;;;;;;;21.58;19.48;;;;;;;3.63;96.24;101187.28;7394308;19;20364;-61
2023/12/07 05:05:58;;;;;;;21.52;19.45;;;;;;;3.66;96.32;101187.03;7395012;19;20369;-61
2023/12/07 05:08:25;;;;;;;21.57;19.37;;;;;;;3.70;95.96;101192.03;7394164;19;20346;-62
2023/12/07 05:10:52;;;;;;;21.02;18.90;;;;;;;3.70;96.01;101186.78;7394461;19;20377;-61
2023/12/07 05:13:19;;;;;;;22.00;19.85;;;;;;;3.68;95.69;101179.88;7391684;19;20363;-62
2023/12/07 05:15:46;;;;;;;20.45;18.55;;;;;;;3.68;95.62;101184.31;7392729;19;20393;-62
2023/12/07 05:18:13;;;;;;;21.10;19.00;;;;;;;3.67;95.55;101178.22;7391606;19;20385;-63
2023/12/07 05:20:40;;;;;;;21.20;19.20;;;;;;;3.67;95.50;101178.22;7394578;19;21101;-61
2023/12/07 05:23:07;;;;;;;21.35;19.15;;;;;;;3.68;95.63;101187.75;7393269;19;20879;-61
2023/12/07 05:25:34;;;;;;;20.63;18.63;;;;;;;3.66;95.49;101184.44;7391741;19;20360;-62
2023/12/07 05:28:01;;;;;;;20.30;18.20;;;;;;;3.67;95.31;101188.69;7392356;19;20881;-61
2023/12/07 05:30:28;;;;;;;20.90;18.52;;;;;;;3.66;95.33;101187.03;7387194;19;20719;-61
2023/12/07 05:32:54;;;;;;;20.50;18.50;;;;;;;3.64;95.38;101188.13;7392510;19;20355;-62
2023/12/07 05:35:23;;;;;;;20.17;18.17;;;;;;;3.64;95.21;101186.31;7393870;19;20392;-62
2023/12/07 05:37:50;;;;;;;19.67;17.58;;;;;;;3.63;95.33;101176.81;7396463;19;20368;-63
2023/12/07 05:40:17;;;;;;;20.10;18.10;;;;;;;3.64;95.13;101188.13;7395107;19;20355;-63
2023/12/07 05:42:44;;;;;;;20.03;18.00;;;;;;;3.66;95.35;101187.03;7391015;19;20504;-62
2023/12/07 05:45:11;;;;;;;20.23;18.13;;;;;;;3.67;95.11;101185.25;7395177;19;20681;-63
2023/12/07 05:47:37;;;;;;;19.98;18.08;;;;;;;3.69;95.27;101185.97;7396501;19;20336;-62
2023/12/07 05:50:05;;;;;;;19.98;18.08;;;;;;;3.70;95.00;101181.56;7393518;19;20360;-62
2023/12/07 05:52:32;;;;;;;19.60;17.70;;;;;;;3.73;94.95;101181.31;7396308;19;20359;-63
2023/12/07 05:54:58;;;;;;;19.63;17.55;;;;;;;3.71;94.86;101178.00;7393892;19;20368;-62
2023/12/07 05:57:26;;;;;;;19.40;17.52;;;;;;;3.69;94.75;101185.97;7392437;19;20380;-63
2023/12/07 05:59:52;;;;;;;18.67;16.85;;;;;;;3.68;94.54;101187.75;7393774;19;20381;-61
2023/12/07 06:02:19;;;;;;;19.10;17.20;;;;;;;3.68;94.66;101189.56;7393228;19;20361;-62
2023/12/07 06:04:46;;;;;;;18.88;16.98;;;;;;;3.68;94.38;101192.19;7395806;19;20714;-61
2023/12/07 06:07:13;;;;;;;19.15;17.27;;;;;;;3.65;94.24;101187.97;7395545;19;20367;-62
2023/12/07 06:09:41;;;;;;;19.27;17.27;;;;;;;3.64;94.46;101188.94;7394382;19;20718;-61
2023/12/07 06:12:08;;;;;;;19.65;16.73;;;;;;;3.64;94.49;101186.31;7388194;19;20364;-63
2023/12/07 06:14:34;;;;;;;19.52;17.63;;;;;;;3.61;94.22;101189.19;7395247;19;20368;-62
2023/12/07 06:17:01;;;;;;;19.97;17.87;;;;;;;3.61;94.13;101194.44;7393340;19;20382;-62
2023/12/07 06:19:28;;;;;;;20.00;17.95;;;;;;;3.61;94.24;101196.22;7394902;19;20345;-61
2023/12/07 06:21:55;;;;;;;19.55;17.63;;;;;;;3.61;94.32;101198.84;7392950;19;20363;-62
2023/12/07 06:24:24;;;;;;;19.90;17.90;;;;;;;3.63;94.62;101195.16;7392488;19;20367;-61
2023/12/07 06:26:52;;;;;;;20.50;18.47;;;;;;;3.61;94.28;101202.31;7394316;19;20381;-62
2023/12/07 06:29:18;;;;;;;20.65;18.52;;;;;;;3.60;94.28;101208.50;7393564;19;20368;-62
2023/12/07 06:31:45;;;;;;;20.83;18.60;;;;;;;3.59;94.28;101219.09;7390513;19;20875;-61
2023/12/07 06:34:12;;;;;;;22.42;20.02;;;;;;;3.59;94.44;101217.34;7393896;19;20435;-62
2023/12/07 06:36:39;;;;;;;22.95;20.55;;;;;;;3.58;94.38;101220.91;7393364;19;20356;-62
2023/12/07 06:39:06;;;;;;;20.27;18.17;;;;;;;3.61;94.43;101218.06;7393706;19;20353;-61
2023/12/07 06:41:33;;;;;;;20.73;18.63;;;;;;;3.63;94.46;101221.41;7390852;19;20361;-62
2023/12/07 06:44:00;;;;;;;20.00;17.83;;;;;;;3.65;94.31;101221.25;7392913;19;20744;-62
2023/12/07 06:46:26;;;;;;;20.50;18.50;;;;;;;3.65;94.24;101218.63;7391284;19;20864;-62
2023/12/07 06:48:54;;;;;;;20.20;17.50;;;;;;;3.64;94.04;101228.31;7393652;19;20365;-62
2023/12/07 06:51:21;;;;;;;20.23;18.17;;;;;;;3.67;94.31;101228.06;7392954;19;20365;-62
2023/12/07 06:53:47;;;;;;;18.85;16.95;;;;;;;3.67;94.10;101233.31;7393672;19;20370;-61
2023/12/07 06:56:15;;;;;;;19.70;17.73;;;;;;;3.65;93.96;101227.34;7391253;19;20367;-62
2023/12/07 06:58:42;;;;;;;19.33;17.33;;;;;;;3.65;94.10;101235.22;7392667;19;20364;-61
2023/12/07 07:01:08;;;;;;;19.40;17.60;;;;;;;3.62;93.76;101238.06;7391801;19;20357;-62
2023/12/07 07:03:35;;;;;;;19.27;17.27;;;;;;;3.63;94.00;101238.91;7389615;19;20368;-62
2023/12/07 07:06:02;;;;;;;19.90;17.80;;;;;;;3.63;93.99;101245.00;7393932;19;20887;-62
2023/12/07 07:08:29;;;;;;;19.25;17.35;;;;;;;3.65;94.12;101250.94;7393710;19;20660;-61
2023/12/07 07:10:56;;;;;;;19.75;17.75;;;;;;;3.64;94.02;101246.66;7391044;19;20361;-59
2023/12/07 07:13:23;;;;;;;19.83;17.92;;;;;;;3.66;93.92;101249.19;7388934;19;20380;-61
2023/12/07 07:15:50;;;;;;;19.33;17.52;;;;;;;3.67;93.75;101249.03;7390595;19;20899;-62
2023/12/07 07:18:17;;;;;;;20.25;18.33;;;;;;;3.68;93.70;101252.53;7392616;19;20403;-62
2023/12/07 07:20:44;;;;;;;20.92;18.33;;;;;;;3.68;93.73;101249.91;7392047;19;20773;-61
2023/12/07 07:23:12;;;;;;;19.95;18.05;;;;;;;3.68;93.82;101249.91;7393768;19;20722;-62
2023/12/07 07:25:38;;;;;;;20.05;18.02;;;;;;;3.70;93.77;101244.53;7389773;19;20340;-62
2023/12/07 07:28:05;;;;;;;20.38;18.40;;;;;;;3.74;93.68;101256.44;7391915;19;20938;-62
2023/12/07 07:30:32;;;;;;;19.40;17.50;;;;;;;3.77;93.55;101245.75;7391532;19;20372;-62
2023/12/07 07:32:59;;;;;;;19.13;17.13;;;;;;;3.79;93.42;101249.09;7391462;19;20373;-62
2023/12/07 07:35:27;;;;;;;19.88;17.90;;;;;;;3.81;93.51;101249.81;7392817;19;20356;-62
2023/12/07 07:37:54;;;;;;;19.37;17.47;;;;;;;3.79;93.03;101257.78;7390946;19;20364;-62
2023/12/07 07:40:21;;;;;;;20.75;18.50;;;;;;;3.79;93.00;101254.34;7389010;19;20344;-62
2023/12/07 07:42:48;;;;;;;20.27;18.37;;;;;;;3.79;93.11;101249.91;7397389;19;20393;-62
2023/12/07 07:45:16;;;;;;;20.48;18.42;;;;;;;3.79;92.96;101270.09;7400510;19;20344;-62
2023/12/07 07:47:43;;;;;;;20.30;18.20;;;;;;;3.80;93.14;101266.50;7398442;19;20937;-62
2023/12/07 07:50:10;;;;;;;19.95;17.95;;;;;;;3.79;92.97;101267.47;7397197;19;20384;-62
2023/12/07 07:52:37;;;;;;;20.10;18.00;;;;;;;3.77;92.93;101262.31;7397299;19;20379;-63
2023/12/07 07:55:04;;;;;;;25.23;21.30;;;;;;;3.79;92.73;101267.47;7397625;19;20348;-62
2023/12/07 07:57:31;;;;;;;23.50;21.00;;;;;;;3.82;92.95;101264.59;7396790;19;20368;-63
2023/12/07 07:59:58;;;;;;;22.25;19.98;;;;;;;3.83;92.95;101266.28;7398538;19;20380;-62
2023/12/07 08:02:26;;;;;;;22.73;20.38;;;;;;;3.82;92.83;101273.28;7396229;19;20361;-62
2023/12/07 08:04:52;;;;;;;22.70;20.47;;;;;;;3.83;92.76;101271.53;7397184;19;20369;-62
2023/12/07 08:07:19;;;;;;;23.70;21.27;;;;;;;3.82;92.61;101280.31;7399389;19;20412;-62
2023/12/07 08:09:46;;;;;;;22.67;20.48;;;;;;;3.82;92.87;101280.31;7398015;19;20840;-63
2023/12/07 08:12:13;;;;;;;24.30;21.80;;;;;;;3.82;92.77;101282.94;7394391;19;20420;-62
2023/12/07 08:14:40;;;;;;;23.30;21.05;;;;;;;3.81;92.88;101278.66;7397286;19;20876;-63
2023/12/07 08:17:06;;;;;;;24.07;21.57;;;;;;;3.80;92.98;101277.81;7398562;19;20424;-62
2023/12/07 08:19:33;;;;;;;24.52;21.90;;;;;;;3.81;92.91;101278.66;7398725;19;20442;-63
2023/12/07 08:22:00;;;;;;;24.45;21.92;;;;;;;3.82;93.00;101281.16;7398136;19;20683;-63
2023/12/07 08:24:27;;;;;;;22.77;20.27;;;;;;;3.84;92.97;101281.06;7395887;19;20380;-63
2023/12/07 08:26:54;;;;;;;22.92;20.63;;;;;;;3.84;92.98;101286.31;7397325;19;20373;-63
2023/12/07 08:29:20;;;;;;;23.15;20.85;;;;;;;3.89;93.08;101289.44;7398166;19;20880;-63
2023/12/07 08:31:47;;;;;;;23.77;21.48;;;;;;;3.91;92.99;101289.28;7396713;19;20384;-63
2023/12/07 08:34:14;;;;;;;22.88;20.48;;;;;;;3.90;92.96;101283.22;7398640;19;20351;-63
2023/12/07 08:36:41;;;;;;;22.27;19.98;;;;;;;3.92;92.87;101272.59;7397540;19;20353;-63
2023/12/07 08:39:09;;;;;;;23.02;20.63;;;;;;;3.95;93.24;101281.06;7397578;19;20360;-62
2023/12/07 08:41:36;;;;;;;23.33;21.02;;;;;;;3.98;93.15;101280.00;7397995;19;20369;-63
2023/12/07 08:44:05;;;;;;;22.42;20.13;;;;;;;4.03;93.19;101278.69;7397103;19;20356;-63
2023/12/07 08:46:32;;;;;;;22.40;20.20;;;;;;;4.06;92.80;101275.84;7397064;19;20352;-62
2023/12/07 08:48:59;;;;;;;22.63;20.33;;;;;;;4.10;92.78;101279.03;7397151;19;20372;-63
2023/12/07 08:51:26;;;;;;;22.58;20.40;;;;;;;4.14;92.91;101284.91;7394783;19;20379;-63
2023/12/07 08:53:52;;;;;;;23.10;20.80;;;;;;;4.16;92.81;101277.75;7395491;19;20364;-63
2023/12/07 08:56:22;;;;;;;22.95;20.58;;;;;;;4.19;92.31;101277.53;7396404;19;20552;-62
2023/12/07 08:58:48;;;;;;;22.10;19.90;;;;;;;4.20;92.26;101273.94;7396788;19;20364;-63
2023/12/07 09:01:15;;;;;;;22.98;20.55;;;;;;;4.25;92.26;101288.38;7395807;19;20348;-63
2023/12/07 09:03:57;;;;;;;22.33;19.95;;;;;;;4.26;92.26;101291.84;7394961;19;20368;-63
2023/12/07 09:06:24;;;;;;;22.23;20.02;;;;;;;4.29;92.09;101291.59;7396532;19;20424;-63
2023/12/07 09:08:52;;;;;;;23.60;21.20;;;;;;;4.29;91.88;101294.22;7393946;19;20345;-63
2023/12/07 09:11:19;;;;;;;23.17;20.92;;;;;;;4.33;91.97;101298.28;7393936;19;20411;-63
2023/12/07 09:13:46;;;;;;;23.23;20.73;;;;;;;4.33;91.53;101295.66;7394889;19;20344;-63
2023/12/07 09:16:14;;;;;;;22.75;20.42;;;;;;;4.31;91.51;101292.31;7396653;19;20344;-63
2023/12/07 09:18:42;;;;;;;22.80;20.50;;;;;;;4.32;91.39;101307.13;7396237;19;20389;-62
2023/12/07 09:21:09;;;;;;;23.73;21.23;;;;;;;4.33;91.35;101297.44;7396646;19;20369;-62
2023/12/07 09:23:37;;;;;;;23.75;21.35;;;;;;;4.35;91.63;101291.09;7394387;19;20868;-63
2023/12/07 09:26:05;;;;;;;23.30;20.90;;;;;;;4.35;91.12;101304.25;7395860;19;20348;-62
2023/12/07 09:28:33;;;;;;;22.88;20.48;;;;;;;4.34;90.89;101305.22;7394212;19;20372;-63
2023/12/07 09:31:00;;;;;;;23.48;21.13;;;;;;;4.36;90.98;101311.19;7397039;19;20353;-63
2023/12/07 09:33:27;;;;;;;22.77;20.40;;;;;;;4.38;90.84;101313.66;7388124;19;20377;-63
2023/12/07 09:35:54;;;;;;;23.00;20.63;;;;;;;4.37;90.67;101312.00;7395584;19;20368;-62
2023/12/07 09:38:20;;;;;;;22.83;20.42;;;;;;;4.40;90.73;101311.75;7394168;19;20685;-63
2023/12/07 09:40:52;;;;;;;22.77;20.57;;;;;;;4.39;90.28;101315.34;7394895;19;20698;-63
2023/12/07 09:43:18;;;;;;;22.27;19.97;;;;;;;4.38;90.31;101309.28;7392604;19;20364;-62
2023/12/07 09:45:46;;;;;;;22.60;20.27;;;;;;;4.39;90.31;101304.84;7394310;19;20369;-62
2023/12/07 09:48:13;;;;;;;22.92;20.55;;;;;;;4.43;90.24;101306.28;7393633;19;20378;-62
2023/12/07 09:50:40;;;;;;;21.58;19.48;;;;;;;4.41;89.97;101308.19;7396440;19;20369;-62
2023/12/07 09:53:10;;;;;;;22.67;20.27;;;;;;;4.44;90.02;101306.19;7392978;19;20324;-62
2023/12/07 09:55:37;;;;;;;21.45;19.27;;;;;;;4.42;89.35;101315.97;7396142;19;20404;-63
2023/12/07 09:58:06;;;;;;;23.13;20.65;;;;;;;4.42;89.64;101315.09;7393762;19;20381;-62
2023/12/07 10:00:35;;;;;;;22.70;20.42;;;;;;;4.42;89.57;101308.09;7394444;19;20348;-62
2023/12/07 10:03:07;;;;;;;21.02;18.92;;;;;;;4.43;89.31;101295.78;7392402;19;20361;-63
2023/12/07 10:05:54;;;;;;;21.73;19.42;;;;;;;4.46;89.17;101306.88;7394421;19;20361;-63
2023/12/07 10:08:31;;;;;;;21.93;19.67;;;;;;;4.48;89.33;101304.13;7395035;19;20340;-62
2023/12/07 10:11:08;;;;;;;21.70;19.50;;;;;;;4.49;89.09;101297.94;7392639;19;20390;-63
2023/12/07 10:13:37;;;;;;;22.08;19.88;;;;;;;4.55;89.03;101301.84;7392826;19;20400;-63
2023/12/07 10:16:16;;;;;;;21.85;19.48;;;;;;;4.56;88.82;101301.72;7394853;19;20719;-63
2023/12/07 10:18:43;;;;;;;21.80;19.60;;;;;;;4.58;88.85;101299.81;7394227;19;20380;-63
2023/12/07 10:21:12;;;;;;;21.23;19.05;;;;;;;4.58;88.28;101302.44;7392082;19;20744;-63
2023/12/07 10:23:43;;;;;;;21.50;19.20;;;;;;;4.57;88.25;101305.19;7391941;19;20381;-62
2023/12/07 10:26:11;;;;;;;22.50;19.27;;;;;;;4.57;87.95;101302.56;7390703;19;20818;-62
2023/12/07 10:28:39;;;;;;;21.40;19.23;;;;;;;4.54;87.65;101301.00;7393599;19;20365;-62
2023/12/07 10:31:09;;;;;;;21.27;19.10;;;;;;;4.58;88.04;101299.00;7394593;19;20402;-63
2023/12/07 10:33:37;;;;;;;21.13;18.73;;;;;;;4.58;87.69;101293.75;7386590;19;20424;-63
2023/12/07 10:36:06;;;;;;;21.48;19.23;;;;;;;4.55;87.02;101299.22;7394581;19;20758;-63
2023/12/07 10:38:33;;;;;;;20.77;18.63;;;;;;;4.57;87.75;101294.69;7389579;19;20381;-62
2023/12/07 10:41:08;;;;;;;20.40;18.30;;;;;;;4.56;87.18;101290.38;7393051;19;20784;-63
2023/12/07 10:43:42;;;;;;;20.80;18.70;;;;;;;4.58;87.38;101299.81;7393781;19;20955;-62
2023/12/07 10:46:12;;;;;;;20.23;18.17;;;;;;;4.61;87.47;101288.22;7393351;19;20406;-63
2023/12/07 10:48:40;;;;;;;20.98;18.80;;;;;;;4.66;87.47;101286.09;7393728;19;20390;-63
2023/12/07 10:51:13;;;;;;;20.80;18.60;;;;;;;4.68;87.30;101282.38;7393573;19;20345;-63
2023/12/07 10:53:43;;;;;;;20.88;18.75;;;;;;;4.67;86.79;101280.69;7391893;19;20432;-63
2023/12/07 10:56:15;;;;;;;20.52;18.38;;;;;;;4.66;86.35;101283.47;7393257;19;20436;-62
2023/12/07 10:58:43;;;;;;;19.88;17.80;;;;;;;4.67;86.66;101275.44;7393705;19;20359;-62
2023/12/07 11:01:11;;;;;;;20.67;18.53;;;;;;;4.73;86.56;101273.28;7393957;19;20352;-63
2023/12/07 11:03:40;;;;;;;20.38;18.27;;;;;;;4.70;86.00;101274.38;7384261;19;20412;-63
2023/12/07 11:06:08;;;;;;;20.38;18.23;;;;;;;4.70;85.80;101266.50;7393646;19;20869;-63
2023/12/07 11:08:44;;;;;;;20.48;18.38;;;;;;;4.73;85.91;101271.50;7393876;19;20682;-63
2023/12/07 11:11:27;;;;;;;19.63;17.52;;;;;;;4.73;85.57;101276.75;7391749;19;20336;-63
2023/12/07 11:13:59;;;;;;;20.37;18.17;;;;;;;4.73;85.55;101266.22;7390252;19;20353;-63
2023/12/07 11:16:35;;;;;;;20.92;18.67;;;;;;;4.74;85.70;101270.53;7393547;19;20443;-62
2023/12/07 11:19:02;;;;;;;20.10;18.00;;;;;;;4.77;85.61;101274.72;7400322;19;20935;-63